This is the latest recevied weather packets stored in our database for station/object N1OTX. If no packets are shown the sender has not sent any weather packets the latest 10 day(s).
| Time | Temp. | Humidity | Pressure | Rain* | Wind** | Luminosity | Snow |
|---|---|---|---|---|---|---|---|
| 1778163348 | 14.44° C | 60% | 1007.9 hPa | 0 mm | - | 593 W/m² | - |
| 1778163028 | 14.44° C | 58% | 1007.9 hPa | 0 mm | - | 505 W/m² | - |
| 1778161227 | 13.33° C | 61% | 1007.8 hPa | 0 mm | - | 605 W/m² | - |
| 1778156427 | 10° C | 90% | 1008.2 hPa | 0 mm | - | 271 W/m² | - |
| 1778145328 | 9.44° C | 95% | 1007.3 hPa | 1.02 mm | - | 0 W/m² | - |
| 1778143848 | 10° C | 94% | 1007.4 hPa | 0.25 mm | - | 0 W/m² | - |
| 1778142627 | 10.56° C | 95% | 1007.2 hPa | 0.51 mm | - | 0 W/m² | - |
| 1778142327 | 10.56° C | 94% | 1007.1 hPa | 0.51 mm | - | 0 W/m² | - |
| 1778142048 | 10.56° C | 94% | 1007 hPa | 0.51 mm | - | 0 W/m² | - |
| 1778141427 | 10.56° C | 92% | 1006.9 hPa | 0.51 mm | - | 0 W/m² | - |
| 1778139328 | 12.22° C | 90% | 1007.2 hPa | 0 mm | - | 0 W/m² | - |
| 1778139028 | 12.22° C | 90% | 1006.8 hPa | 0 mm | - | 0 W/m² | - |
| 1778137227 | 12.22° C | 90% | 1006.4 hPa | 0 mm | - | 0 W/m² | - |
| 1778134228 | 12.78° C | 90% | 1006.3 hPa | 0 mm | - | 0 W/m² | - |
| 1778133327 | 12.78° C | 89% | 1006.6 hPa | 0 mm | - | 0 W/m² | - |
| 1778129728 | 14.44° C | 91% | 1006.6 hPa | 0 mm | - | 0 W/m² | - |
| 1778129468 | 14.44° C | 92% | 1006.5 hPa | 0 mm | - | 0 W/m² | - |
| 1778129127 | 14.44° C | 94% | 1006.6 hPa | 0 mm | - | 0 W/m² | - |
| 1778127627 | 15° C | 96% | 1006.4 hPa | 0.25 mm | - | 0 W/m² | - |
| 1778125548 | 15° C | 97% | 1006.3 hPa | 0 mm | - | 0 W/m² | - |
| 1778124027 | 15° C | 95% | 1006 hPa | 0 mm | - | 0 W/m² | - |
| 1778122228 | 15° C | 95% | 1005.6 hPa | 0 mm | - | 0 W/m² | - |
| 1778121928 | 15° C | 95% | 1005.8 hPa | 0 mm | - | 0 W/m² | - |
| 1778120127 | 15° C | 95% | 1005.9 hPa | 0 mm | - | 0 W/m² | - |
| 1778119227 | 15° C | 96% | 1005.8 hPa | 0 mm | - | 0 W/m² | - |
* Rain latest hour (hover to see other rain measurements)
** Current wind speed in m/s (hover to see current wind gust speed)